Time;durP1;ratioP1;P1;durP2;ratioP2;P2;SDS_P1;SDS_P2;PMS_P1;PMS_P2;Temp;Humidity;BMP_temperature;BMP_pressure;BME280_temperature;BME280_humidity;BME280_pressure;Samples;Min_cycle;Max_cycle;Signal;HPM_P1;HPM_P2
2021/03/09 00:00:23;;;;;;;28.17;25.17;;;;;14.50;100861.00;;;;2083266;28;20209;-69
2021/03/09 00:01:23;;;;;;;28.07;25.07;;;;;14.60;100861.00;;;;2075276;28;20335;-70
2021/03/09 00:02:24;;;;;;;29.17;24.57;;;;;14.60;100863.00;;;;2075446;28;20731;-70
2021/03/09 00:03:24;;;;;;;29.53;26.00;;;;;14.60;100863.00;;;;2085514;28;20700;-70
2021/03/09 00:04:24;;;;;;;29.10;25.90;;;;;14.60;100860.00;;;;2085367;28;20706;-70
2021/03/09 00:05:25;;;;;;;27.60;24.77;;;;;14.60;100857.00;;;;2076127;28;20791;-70
2021/03/09 00:06:25;;;;;;;28.73;25.43;;;;;14.60;100856.00;;;;2075569;28;20588;-70
2021/03/09 00:07:25;;;;;;;29.13;26.03;;;;;14.60;100864.00;;;;2079655;28;20279;-70
2021/03/09 00:08:26;;;;;;;27.20;24.03;;;;;14.60;100858.00;;;;2085531;28;20251;-70
2021/03/09 00:09:26;;;;;;;28.17;25.30;;;;;14.60;100858.00;;;;2085601;28;20216;-70
2021/03/09 00:10:26;;;;;;;29.23;26.23;;;;;14.60;100853.00;;;;2085137;28;20611;-70
2021/03/09 00:11:27;;;;;;;29.33;25.40;;;;;14.60;100859.00;;;;2076207;28;20732;-69
2021/03/09 00:12:28;;;;;;;29.13;25.90;;;;;14.60;100860.00;;;;2073740;28;20217;-70
2021/03/09 00:13:28;;;;;;;28.70;25.60;;;;;14.60;100857.00;;;;2076364;28;20305;-70
2021/03/09 00:14:28;;;;;;;27.60;24.60;;;;;14.60;100866.00;;;;2068453;28;20275;-69
2021/03/09 00:15:29;;;;;;;28.60;24.43;;;;;14.60;100855.00;;;;2076651;28;20214;-70
2021/03/09 00:16:29;;;;;;;26.43;23.53;;;;;14.60;100857.00;;;;2074990;28;20225;-70
2021/03/09 00:17:29;;;;;;;28.60;25.50;;;;;14.60;100845.00;;;;2083701;28;20213;-70
2021/03/09 00:18:30;;;;;;;27.77;24.93;;;;;14.60;100858.00;;;;2083432;28;20214;-70
2021/03/09 00:19:30;;;;;;;27.67;24.57;;;;;14.60;100859.00;;;;2085817;28;20218;-69
2021/03/09 00:20:30;;;;;;;27.93;24.67;;;;;14.60;100857.00;;;;2085807;28;20214;-70
2021/03/09 00:21:31;;;;;;;28.70;25.60;;;;;14.60;100854.00;;;;2085646;28;20240;-70
2021/03/09 00:22:31;;;;;;;28.07;25.07;;;;;14.60;100855.00;;;;2085950;28;20217;-70
2021/03/09 00:23:31;;;;;;;26.97;23.20;;;;;14.60;100858.00;;;;2085511;28;20216;-70
2021/03/09 00:24:32;;;;;;;27.40;24.40;;;;;14.60;100848.00;;;;2085848;28;20222;-70
2021/03/09 00:25:32;;;;;;;27.20;24.33;;;;;14.60;100850.00;;;;2084434;28;20214;-70
2021/03/09 00:26:32;;;;;;;27.83;24.83;;;;;14.60;100850.00;;;;2085685;28;20288;-70
2021/03/09 00:27:33;;;;;;;27.20;24.40;;;;;14.60;100850.00;;;;2085439;28;20714;-70
2021/03/09 00:28:33;;;;;;;28.30;25.40;;;;;14.60;100854.00;;;;2085519;28;21754;-70
2021/03/09 00:29:33;;;;;;;29.63;25.53;;;;;14.60;100833.00;;;;2085141;28;21526;-69
2021/03/09 00:30:34;;;;;;;28.97;25.53;;;;;14.60;100851.00;;;;2076338;28;20387;-70
2021/03/09 00:31:34;;;;;;;26.00;23.30;;;;;14.60;100849.00;;;;2074006;28;20223;-70
2021/03/09 00:32:34;;;;;;;27.97;24.60;;;;;14.60;100845.00;;;;2076479;28;20242;-70
2021/03/09 00:33:35;;;;;;;26.93;23.97;;;;;14.60;100847.00;;;;2076598;28;20218;-70
2021/03/09 00:34:35;;;;;;;27.47;24.60;;;;;14.60;100843.00;;;;2085352;28;20280;-70
2021/03/09 00:35:36;;;;;;;27.63;24.53;;;;;14.60;100844.00;;;;2075446;28;20231;-70
2021/03/09 00:36:36;;;;;;;28.70;25.60;;;;;14.60;100851.00;;;;2076361;28;20223;-69
2021/03/09 00:37:36;;;;;;;28.07;25.07;;;;;14.60;100851.00;;;;2076383;28;20221;-70
2021/03/09 00:38:37;;;;;;;27.63;24.73;;;;;14.60;100849.00;;;;2067753;28;20211;-69
2021/03/09 00:39:37;;;;;;;26.80;23.90;;;;;14.60;100846.00;;;;2068738;28;20274;-70
2021/03/09 00:40:37;;;;;;;26.87;24.00;;;;;14.60;100844.00;;;;2076539;28;20230;-70
2021/03/09 00:41:38;;;;;;;25.80;23.10;;;;;14.60;100846.00;;;;2076895;28;20210;-70
2021/03/09 00:42:38;;;;;;;25.30;22.60;;;;;14.60;100845.00;;;;2085582;28;20249;-70
2021/03/09 00:43:39;;;;;;;27.73;24.33;;;;;14.60;100837.00;;;;2085615;28;20209;-70
2021/03/09 00:44:39;;;;;;;28.23;25.23;;;;;14.60;100836.00;;;;2084781;28;20685;-70
2021/03/09 00:45:40;;;;;;;26.23;23.43;;;;;14.60;100848.00;;;;2073342;28;20263;-70
2021/03/09 00:46:40;;;;;;;27.20;23.60;;;;;14.60;100839.00;;;;2071540;28;20229;-70
2021/03/09 00:47:41;;;;;;;25.93;22.63;;;;;14.60;100843.00;;;;2082379;28;20263;-70
2021/03/09 00:48:41;;;;;;;27.70;24.10;;;;;14.60;100844.00;;;;2084055;28;20210;-70
2021/03/09 00:49:41;;;;;;;28.40;25.17;;;;;14.60;100838.00;;;;2085548;28;20283;-70
2021/03/09 00:50:42;;;;;;;27.53;24.63;;;;;14.60;100844.00;;;;2085339;28;20217;-70
2021/03/09 00:51:42;;;;;;;26.87;24.17;;;;;14.60;100834.00;;;;2085602;28;20202;-70
2021/03/09 00:52:42;;;;;;;26.73;23.40;;;;;14.60;100835.00;;;;2085508;28;20241;-70
2021/03/09 00:53:43;;;;;;;24.60;22.10;;;;;14.60;100834.00;;;;2085418;28;20203;-70
2021/03/09 00:54:43;;;;;;;25.87;23.10;;;;;14.60;100834.00;;;;2085429;28;20210;-70
2021/03/09 00:55:43;;;;;;;25.93;23.30;;;;;14.60;100832.00;;;;2092142;28;20288;-70
2021/03/09 00:56:44;;;;;;;25.53;22.93;;;;;14.60;100833.00;;;;2090350;28;20201;-70
2021/03/09 00:57:53;;;;;;;26.03;23.23;;;;;14.60;100833.00;;;;2076881;28;20206;-69
2021/03/09 00:58:53;;;;;;;26.30;23.50;;;;;14.60;100831.00;;;;2077879;28;20218;-70
2021/03/09 00:59:54;;;;;;;25.87;23.17;;;;;14.60;100833.00;;;;2079300;28;20237;-70
2021/03/09 01:00:54;;;;;;;26.30;23.50;;;;;14.60;100832.00;;;;2079463;28;20229;-70
2021/03/09 01:01:55;;;;;;;27.53;24.20;;;;;14.60;100828.00;;;;2076725;28;20238;-70
2021/03/09 01:02:55;;;;;;;24.33;21.80;;;;;14.60;100834.00;;;;2074426;28;20233;-70
2021/03/09 01:03:55;;;;;;;28.23;24.50;;;;;14.60;100830.00;;;;2076249;28;20214;-70
2021/03/09 01:04:55;;;;;;;26.17;23.37;;;;;14.60;100832.00;;;;2076606;28;20691;-70
2021/03/09 01:05:56;;;;;;;26.00;23.20;;;;;14.60;100828.00;;;;2075978;28;20239;-70
2021/03/09 01:06:56;;;;;;;26.30;23.50;;;;;14.60;100826.00;;;;2082818;28;20222;-70
2021/03/09 01:07:56;;;;;;;24.40;21.67;;;;;14.60;100827.00;;;;2092751;28;20219;-70
2021/03/09 01:08:57;;;;;;;27.37;24.30;;;;;14.60;100821.00;;;;2092585;28;20579;-70
2021/03/09 01:09:57;;;;;;;25.33;22.73;;;;;14.60;100829.00;;;;2085568;28;20209;-70
2021/03/09 01:10:57;;;;;;;25.53;22.77;;;;;14.60;100824.00;;;;2085288;28;20221;-70
2021/03/09 01:11:58;;;;;;;25.13;22.50;;;;;14.60;100831.00;;;;2092633;28;20205;-70
2021/03/09 01:12:58;;;;;;;26.53;23.73;;;;;14.60;100833.00;;;;2092726;28;20271;-70
2021/03/09 01:13:59;;;;;;;25.83;23.13;;;;;14.60;100828.00;;;;2084376;28;20654;-66
2021/03/09 01:14:59;;;;;;;26.30;23.40;;;;;14.60;100826.00;;;;2085226;28;20208;-68
2021/03/09 01:15:59;;;;;;;25.63;22.63;;;;;14.60;100826.00;;;;2083211;28;20577;-69
2021/03/09 01:16:59;;;;;;;25.00;22.47;;;;;14.60;100833.00;;;;2082694;28;20644;-69
2021/03/09 01:18:00;;;;;;;25.80;23.00;;;;;14.60;100827.00;;;;2090321;28;20684;-69
2021/03/09 01:19:00;;;;;;;27.23;23.23;;;;;14.60;100823.00;;;;2092648;28;20568;-70
2021/03/09 01:20:01;;;;;;;24.10;21.60;;;;;14.60;100823.00;;;;2076696;28;20950;-69
2021/03/09 01:21:01;;;;;;;26.27;23.13;;;;;14.60;100819.00;;;;2076516;28;20214;-70
2021/03/09 01:22:01;;;;;;;25.70;22.90;;;;;14.60;100823.00;;;;2076498;28;20210;-70
2021/03/09 01:23:02;;;;;;;25.30;22.57;;;;;14.60;100820.00;;;;2085304;28;20209;-69
2021/03/09 01:24:02;;;;;;;25.60;22.90;;;;;14.60;100824.00;;;;2085299;28;20201;-70
2021/03/09 01:25:03;;;;;;;24.23;21.63;;;;;14.60;100822.00;;;;2092696;28;20239;-70
2021/03/09 01:26:03;;;;;;;26.13;23.40;;;;;14.60;100820.00;;;;2091678;28;20211;-70
2021/03/09 01:27:04;;;;;;;25.00;22.53;;;;;14.60;100814.00;;;;2085394;28;20197;-70
2021/03/09 01:28:04;;;;;;;24.63;22.13;;;;;14.60;100825.00;;;;2085543;28;20232;-70
2021/03/09 01:29:05;;;;;;;26.50;23.80;;;;;14.50;100822.00;;;;2085168;28;20211;-70
2021/03/09 01:30:06;;;;;;;26.67;23.93;;;;;14.60;100820.00;;;;2092738;28;20201;-70
2021/03/09 01:31:06;;;;;;;25.13;22.45;;;;;14.60;100815.00;;;;2093037;28;20219;-69
2021/03/09 01:32:07;;;;;;;24.37;21.83;;;;;14.60;100820.00;;;;2085353;28;20223;-70
2021/03/09 01:33:07;;;;;;;25.30;22.63;;;;;14.60;100821.00;;;;2083597;28;20212;-70
2021/03/09 01:34:08;;;;;;;24.10;21.50;;;;;14.60;100812.00;;;;2084373;28;20236;-70
2021/03/09 01:35:09;;;;;;;25.17;22.47;;;;;14.60;100815.00;;;;2083484;28;20627;-70
2021/03/09 01:36:09;;;;;;;25.20;22.13;;;;;14.60;100818.00;;;;2086888;28;20583;-70
2021/03/09 01:37:09;;;;;;;24.63;22.10;;;;;14.60;100816.00;;;;2085140;28;20468;-70
2021/03/09 01:38:10;;;;;;;24.60;22.07;;;;;14.60;100815.00;;;;2085222;28;20751;-70
2021/03/09 01:39:12;;;;;;;23.50;21.00;;;;;14.60;100813.00;;;;2085351;28;20677;-70
2021/03/09 01:40:12;;;;;;;24.67;22.10;;;;;14.60;100811.00;;;;2085312;28;20679;-69
2021/03/09 01:41:13;;;;;;;24.63;22.07;;;;;14.60;100816.00;;;;2085030;28;20206;-71
2021/03/09 01:42:13;;;;;;;25.73;23.03;;;;;14.60;100813.00;;;;2092349;28;20198;-70
2021/03/09 01:43:14;;;;;;;24.03;21.53;;;;;14.60;100813.00;;;;2092302;28;20343;-70
2021/03/09 01:44:14;;;;;;;24.97;22.37;;;;;14.60;100765.00;;;;2085154;28;20205;-70
2021/03/09 01:45:14;;;;;;;25.00;22.30;;;;;14.60;100811.00;;;;2092089;28;20565;-71
2021/03/09 01:46:16;;;;;;;22.93;20.50;;;;;14.60;100811.00;;;;2089838;28;20620;-70
2021/03/09 01:47:17;;;;;;;24.10;21.55;;;;;14.60;100809.00;;;;2075791;28;20319;-70
2021/03/09 01:48:20;;;;;;;23.60;21.17;;;;;14.60;100807.00;;;;2073928;28;20206;-70
2021/03/09 01:49:20;;;;;;;23.70;21.23;;;;;14.60;100806.00;;;;2069187;28;20245;-70
2021/03/09 01:50:21;;;;;;;24.20;21.70;;;;;14.60;100804.00;;;;2075931;28;20203;-70
2021/03/09 01:51:21;;;;;;;24.10;20.63;;;;;14.60;100798.00;;;;2075318;28;20210;-70
2021/03/09 01:52:21;;;;;;;24.10;21.60;;;;;14.60;100804.00;;;;2075920;28;20210;-71
2021/03/09 01:53:22;;;;;;;23.03;20.63;;;;;14.60;100801.00;;;;2075702;28;20225;-70
2021/03/09 01:54:22;;;;;;;22.47;20.10;;;;;14.60;100800.00;;;;2075834;28;20214;-70
2021/03/09 01:55:22;;;;;;;23.20;20.80;;;;;14.60;100800.00;;;;2075513;28;20233;-70
2021/03/09 01:56:23;;;;;;;24.33;21.83;;;;;14.60;100801.00;;;;2076139;28;20257;-70
2021/03/09 01:57:23;;;;;;;23.00;20.50;;;;;14.60;100797.00;;;;2076131;28;20226;-70
2021/03/09 01:58:23;;;;;;;24.53;21.93;;;;;14.60;100800.00;;;;2076195;28;20222;-70
2021/03/09 01:59:24;;;;;;;22.17;19.93;;;;;14.60;100797.00;;;;2076202;28;20252;-70
2021/03/09 02:00:24;;;;;;;23.10;20.70;;;;;14.60;100795.00;;;;2068186;28;20214;-70
2021/03/09 02:01:24;;;;;;;23.63;21.30;;;;;14.60;100792.00;;;;2066410;28;20215;-70
2021/03/09 02:02:25;;;;;;;23.87;21.37;;;;;14.50;100787.00;;;;2076210;28;20303;-70
2021/03/09 02:03:25;;;;;;;22.17;19.87;;;;;14.60;100788.00;;;;2068002;28;20241;-70
2021/03/09 02:04:25;;;;;;;24.23;21.13;;;;;14.60;100792.00;;;;2076312;28;20947;-70
2021/03/09 02:05:26;;;;;;;21.17;19.00;;;;;14.60;100797.00;;;;2084341;28;20707;-70
2021/03/09 02:06:26;;;;;;;23.27;20.53;;;;;14.60;100784.00;;;;2085022;28;20217;-70
2021/03/09 02:07:26;;;;;;;23.07;20.57;;;;;14.60;100789.00;;;;2078599;28;20217;-70
2021/03/09 02:08:27;;;;;;;22.93;20.50;;;;;14.60;100783.00;;;;2085230;28;20302;-70
2021/03/09 02:09:27;;;;;;;22.63;20.33;;;;;14.60;100778.00;;;;2076160;28;20798;-70
2021/03/09 02:10:28;;;;;;;23.03;20.70;;;;;14.60;100781.00;;;;2068087;28;20219;-70
2021/03/09 02:11:33;;;;;;;22.80;20.40;;;;;14.60;100781.00;;;;2067782;28;20222;-70
2021/03/09 02:12:39;;;;;;;23.25;20.83;;;;;14.60;100782.00;;;;2068914;28;20628;-70
2021/03/09 02:13:51;;;;;;;23.00;20.60;;;;;14.60;100772.00;;;;2069043;28;20308;-68
2021/03/09 02:15:02;;;;;;;22.88;20.48;;;;;14.60;100773.00;;;;2077891;28;20828;-70
2021/03/09 02:16:28;;;;;;;23.00;20.52;;;;;14.60;100770.00;;;;2089242;28;20304;-70
2021/03/09 02:17:33;;;;;;;24.73;20.92;;;;;14.60;100772.00;;;;2077032;28;20221;-70
2021/03/09 02:18:51;;;;;;;23.80;21.25;;;;;14.60;100767.00;;;;2074223;28;20222;-71
2021/03/09 02:20:10;;;;;;;23.15;20.50;;;;;14.50;100769.00;;;;2065247;28;20341;-70
2021/03/09 02:21:29;;;;;;;21.02;18.85;;;;;14.50;100763.00;;;;2067226;28;20226;-69
2021/03/09 02:22:42;;;;;;;22.13;19.70;;;;;14.60;100766.00;;;;2070242;28;20639;-70
2021/03/09 02:24:32;;;;;;;22.52;20.23;;;;;14.60;100766.00;;;;2077425;28;20770;-70
2021/03/09 02:26:01;;;;;;;22.23;19.60;;;;;14.60;100761.00;;;;2065145;28;20214;-70
2021/03/09 02:27:09;;;;;;;23.33;20.83;;;;;14.60;100760.00;;;;2086818;28;20320;-70
2021/03/09 02:28:48;;;;;;;21.42;19.27;;;;;14.60;100765.00;;;;2085876;28;20209;-70
2021/03/09 02:30:11;;;;;;;21.73;19.10;;;;;14.60;100755.00;;;;2064519;28;20400;-70
2021/03/09 02:31:11;;;;;;;22.10;19.73;;;;;14.60;100747.00;;;;2075638;28;20301;-70
2021/03/09 02:32:16;;;;;;;21.93;19.73;;;;;14.60;100752.00;;;;2059629;28;20578;-70
2021/03/09 02:33:18;;;;;;;22.58;20.23;;;;;14.60;100748.00;;;;2069152;28;20876;-70
2021/03/09 02:34:22;;;;;;;19.85;17.92;;;;;14.60;100740.00;;;;2089030;28;20624;-70
2021/03/09 02:35:24;;;;;;;21.58;19.33;;;;;14.60;100745.00;;;;2077448;28;20240;-70
2021/03/09 02:36:25;;;;;;;21.55;19.35;;;;;14.60;100742.00;;;;2067315;28;20202;-70
2021/03/09 02:37:34;;;;;;;22.40;19.55;;;;;14.60;100743.00;;;;2075713;28;20796;-70
2021/03/09 02:38:44;;;;;;;21.88;19.50;;;;;14.50;100750.00;;;;2069015;28;20221;-70
2021/03/09 02:39:45;;;;;;;21.88;19.58;;;;;14.60;100745.00;;;;2073494;28;20211;-70
2021/03/09 02:40:45;;;;;;;22.58;20.27;;;;;14.60;100747.00;;;;2074653;28;20211;-70
2021/03/09 02:41:47;;;;;;;21.80;19.50;;;;;14.60;100737.00;;;;2070261;28;20218;-70
2021/03/09 02:42:50;;;;;;;21.15;18.90;;;;;14.60;100732.00;;;;2078439;28;20206;-69
2021/03/09 02:43:53;;;;;;;21.65;19.45;;;;;14.60;100736.00;;;;2077998;28;20303;-70
2021/03/09 02:44:57;;;;;;;19.05;17.25;;;;;14.60;100718.00;;;;2076666;28;20210;-70
2021/03/09 02:45:58;;;;;;;20.90;18.80;;;;;14.60;100740.00;;;;2075222;28;20691;-70
2021/03/09 02:46:59;;;;;;;22.47;20.07;;;;;14.60;100725.00;;;;2062780;28;20223;-70
2021/03/09 02:47:59;;;;;;;22.10;19.80;;;;;14.60;100732.00;;;;2075139;28;20452;-68
2021/03/09 02:48:59;;;;;;;19.33;17.43;;;;;14.60;100724.00;;;;2083462;28;20240;-70
2021/03/09 02:50:00;;;;;;;20.63;18.53;;;;;14.60;100729.00;;;;2059720;28;20293;-70
2021/03/09 02:51:00;;;;;;;20.83;18.73;;;;;14.50;100729.00;;;;2076554;28;20238;-70
2021/03/09 02:52:01;;;;;;;19.63;17.60;;;;;14.50;100720.00;;;;2074285;28;20297;-70
2021/03/09 02:53:05;;;;;;;21.92;19.67;;;;;14.50;100724.00;;;;2075576;28;20225;-70
2021/03/09 02:54:06;;;;;;;20.88;18.67;;;;;14.50;100723.00;;;;2074651;28;20222;-70
2021/03/09 02:55:10;;;;;;;19.60;17.60;;;;;14.60;100724.00;;;;2068085;28;20221;-70
2021/03/09 02:56:10;;;;;;;19.92;17.88;;;;;14.60;100716.00;;;;2074672;28;20967;-68
2021/03/09 02:57:11;;;;;;;19.90;17.80;;;;;14.60;100727.00;;;;2075246;28;20214;-69
2021/03/09 02:58:17;;;;;;;20.30;17.90;;;;;14.60;100726.00;;;;2067570;28;20297;-70
2021/03/09 02:59:18;;;;;;;20.80;18.70;;;;;14.60;100725.00;;;;2076008;28;20215;-70
2021/03/09 03:00:19;;;;;;;19.10;17.10;;;;;14.60;100723.00;;;;2071691;28;20363;-70
2021/03/09 03:01:19;;;;;;;20.07;18.07;;;;;14.50;100719.00;;;;2059176;28;20207;-70
2021/03/09 03:02:20;;;;;;;20.97;18.80;;;;;14.50;100721.00;;;;2067056;28;20211;-70
2021/03/09 03:03:20;;;;;;;20.70;18.50;;;;;14.50;100723.00;;;;2075332;28;20206;-70
2021/03/09 03:04:20;;;;;;;20.70;17.30;;;;;14.50;100714.00;;;;2066754;28;20217;-70
2021/03/09 03:05:21;;;;;;;19.10;17.20;;;;;14.60;100721.00;;;;2075238;28;20585;-70
2021/03/09 03:06:21;;;;;;;19.93;17.93;;;;;14.60;100717.00;;;;2067923;28;20705;-68
2021/03/09 03:07:22;;;;;;;18.63;16.83;;;;;14.50;100723.00;;;;2083619;28;20259;-70
2021/03/09 03:08:22;;;;;;;19.27;17.37;;;;;14.50;100706.00;;;;2083943;28;20197;-70
2021/03/09 03:09:22;;;;;;;19.90;17.93;;;;;14.50;100716.00;;;;2070559;28;20207;-70
2021/03/09 03:10:23;;;;;;;20.43;18.30;;;;;14.50;100695.00;;;;2075296;28;20760;-70
2021/03/09 03:11:23;;;;;;;19.53;17.53;;;;;14.60;100712.00;;;;2074864;28;20653;-69
2021/03/09 03:12:23;;;;;;;19.67;17.67;;;;;14.50;100716.00;;;;2066708;28;20210;-70
2021/03/09 03:13:24;;;;;;;20.30;18.30;;;;;14.50;100708.00;;;;2077737;28;20221;-70
2021/03/09 03:14:25;;;;;;;20.03;18.03;;;;;14.60;100714.00;;;;2074940;28;20327;-70
2021/03/09 03:15:25;;;;;;;19.75;17.75;;;;;14.60;100713.00;;;;2074379;28;20292;-70
2021/03/09 03:16:26;;;;;;;19.57;17.57;;;;;14.60;100711.00;;;;2072063;28;20844;-70
2021/03/09 03:17:27;;;;;;;18.50;16.70;;;;;14.50;100713.00;;;;2069997;28;20222;-70
2021/03/09 03:18:29;;;;;;;19.35;17.25;;;;;14.40;100710.00;;;;2084415;28;20222;-70
2021/03/09 03:19:30;;;;;;;17.95;16.05;;;;;14.50;100713.00;;;;2077367;28;20210;-70
2021/03/09 03:20:30;;;;;;;19.07;17.07;;;;;14.60;100706.00;;;;2058182;28;20214;-71
2021/03/09 03:21:31;;;;;;;18.10;16.20;;;;;14.60;100696.00;;;;2066942;28;21007;-70
2021/03/09 03:22:31;;;;;;;17.60;15.80;;;;;14.50;100707.00;;;;2075725;28;20292;-70
2021/03/09 03:23:31;;;;;;;17.87;16.07;;;;;14.50;100699.00;;;;2067649;28;20280;-70
2021/03/09 03:24:32;;;;;;;17.93;16.10;;;;;14.50;100707.00;;;;2058794;28;20224;-70
2021/03/09 03:25:32;;;;;;;18.93;16.93;;;;;14.60;100703.00;;;;2065638;28;20218;-70
2021/03/09 03:26:33;;;;;;;18.17;16.27;;;;;14.60;100701.00;;;;2075759;28;20222;-69
2021/03/09 03:27:35;;;;;;;18.90;17.00;;;;;14.60;100708.00;;;;2067637;28;20227;-70
2021/03/09 03:28:37;;;;;;;17.30;15.50;;;;;14.60;100704.00;;;;2053086;28;20229;-70
2021/03/09 03:29:38;;;;;;;17.67;15.90;;;;;14.50;100700.00;;;;2083243;28;20221;-70
2021/03/09 03:30:38;;;;;;;17.50;15.70;;;;;14.50;100697.00;;;;2076708;28;20314;-70
2021/03/09 03:31:39;;;;;;;17.73;15.93;;;;;14.50;100703.00;;;;2076009;28;20222;-70
2021/03/09 03:32:39;;;;;;;18.70;16.80;;;;;14.50;100705.00;;;;2073771;28;20298;-70
2021/03/09 03:33:39;;;;;;;18.30;16.47;;;;;14.50;100707.00;;;;2075627;28;20227;-70
2021/03/09 03:34:40;;;;;;;18.73;16.83;;;;;14.50;100688.00;;;;2075501;28;20206;-70
2021/03/09 03:35:41;;;;;;;18.00;16.20;;;;;14.50;100695.00;;;;2075454;28;20732;-70
2021/03/09 03:36:41;;;;;;;17.33;15.53;;;;;14.50;100695.00;;;;2075795;28;20214;-70
2021/03/09 03:37:42;;;;;;;17.63;15.90;;;;;14.50;100699.00;;;;2076788;28;20294;-70
2021/03/09 03:38:42;;;;;;;17.07;15.37;;;;;14.50;100699.00;;;;2077463;28;20613;-71
2021/03/09 03:39:43;;;;;;;17.63;16.00;;;;;14.60;100693.00;;;;2086240;28;20449;-70
2021/03/09 03:40:43;;;;;;;17.23;15.53;;;;;14.60;100688.00;;;;2085375;28;20214;-70
2021/03/09 03:41:45;;;;;;;16.43;14.70;;;;;14.60;100690.00;;;;2085466;28;20213;-70
2021/03/09 03:42:46;;;;;;;18.33;16.52;;;;;14.50;100694.00;;;;2083352;28;20245;-70
2021/03/09 03:43:46;;;;;;;16.83;15.13;;;;;14.50;100702.00;;;;2075887;28;20218;-70
2021/03/09 03:44:46;;;;;;;17.27;15.40;;;;;14.50;100695.00;;;;2076583;28;20685;-69
2021/03/09 03:45:47;;;;;;;17.37;15.67;;;;;14.60;100697.00;;;;2084864;28;20768;-70
2021/03/09 03:46:47;;;;;;;17.53;15.80;;;;;14.60;100693.00;;;;2075210;28;20761;-70
2021/03/09 03:47:48;;;;;;;15.77;14.17;;;;;14.60;100690.00;;;;2075614;28;20559;-70
2021/03/09 03:48:48;;;;;;;17.42;15.73;;;;;14.50;100691.00;;;;2076703;28;20362;-70
2021/03/09 03:49:49;;;;;;;16.40;14.80;;;;;14.50;100688.00;;;;2077380;28;20219;-70
2021/03/09 03:50:50;;;;;;;17.07;15.37;;;;;14.50;100693.00;;;;2071749;28;20313;-70
2021/03/09 03:51:54;;;;;;;17.70;15.90;;;;;14.60;100694.00;;;;2076310;28;20210;-70
2021/03/09 03:53:19;;;;;;;17.70;15.80;;;;;14.50;100688.00;;;;2092056;28;20197;-69
2021/03/09 03:54:30;;;;;;;17.33;15.52;;;;;14.50;100694.00;;;;2090903;28;20309;-70
2021/03/09 03:55:43;;;;;;;16.45;14.80;;;;;14.50;100694.00;;;;2076767;28;20264;-70
2021/03/09 03:56:56;;;;;;;16.80;15.15;;;;;14.50;100680.00;;;;2077343;28;20209;-70
2021/03/09 03:57:59;;;;;;;17.15;15.45;;;;;14.50;100685.00;;;;2084008;28;20214;-70
2021/03/09 03:59:17;;;;;;;16.05;14.45;;;;;14.50;100697.00;;;;2076504;28;20214;-70
2021/03/09 04:00:17;;;;;;;16.40;14.77;;;;;14.50;100692.00;;;;2070950;28;20707;-67
2021/03/09 04:01:19;;;;;;;16.00;14.40;;;;;14.50;100687.00;;;;2061857;28;20203;-69
2021/03/09 04:02:19;;;;;;;16.25;14.55;;;;;14.60;100686.00;;;;2061782;28;20215;-70
2021/03/09 04:03:19;;;;;;;16.67;14.93;;;;;14.50;100684.00;;;;2063623;28;20211;-70
2021/03/09 04:04:23;;;;;;;16.47;14.77;;;;;14.50;100683.00;;;;2060864;28;20211;-70
2021/03/09 04:05:23;;;;;;;16.80;15.05;;;;;14.50;100683.00;;;;2060905;28;20214;-69
2021/03/09 04:06:25;;;;;;;16.07;14.47;;;;;14.50;100689.00;;;;2082090;28;20715;-70
2021/03/09 04:07:26;;;;;;;16.98;15.27;;;;;14.50;100686.00;;;;2084208;28;20213;-70
2021/03/09 04:08:27;;;;;;;16.58;14.90;;;;;14.60;100687.00;;;;2077101;28;20572;-70
2021/03/09 04:09:27;;;;;;;16.23;14.63;;;;;14.50;100670.00;;;;2085744;28;20220;-70
2021/03/09 04:10:27;;;;;;;15.37;13.77;;;;;14.50;100684.00;;;;2085790;28;20209;-70
2021/03/09 04:11:28;;;;;;;16.20;14.60;;;;;14.50;100677.00;;;;2085807;28;20296;-70
2021/03/09 04:12:28;;;;;;;15.80;14.20;;;;;14.50;100682.00;;;;2076747;28;20214;-70
2021/03/09 04:13:29;;;;;;;16.37;14.80;;;;;14.50;100683.00;;;;2077051;28;20277;-70
2021/03/09 04:14:31;;;;;;;14.67;13.27;;;;;14.50;100675.00;;;;2077064;28;20703;-69
2021/03/09 04:15:31;;;;;;;16.05;14.40;;;;;14.50;100684.00;;;;2068405;28;20294;-70
2021/03/09 04:16:31;;;;;;;16.73;14.10;;;;;14.50;100670.00;;;;2067142;28;20874;-71
2021/03/09 04:17:32;;;;;;;15.43;13.93;;;;;14.50;100672.00;;;;2078567;28;20684;-69
2021/03/09 04:18:32;;;;;;;15.77;14.27;;;;;14.50;100666.00;;;;2085207;28;20733;-71
2021/03/09 04:19:33;;;;;;;15.60;14.00;;;;;14.50;100675.00;;;;2084274;28;20245;-70
2021/03/09 04:20:34;;;;;;;16.83;15.03;;;;;14.50;100673.00;;;;2075487;28;20221;-70
2021/03/09 04:21:34;;;;;;;15.93;14.30;;;;;14.50;100668.00;;;;2068002;28;20222;-70
2021/03/09 04:22:35;;;;;;;15.90;14.20;;;;;14.50;100678.00;;;;2062947;28;20239;-69
2021/03/09 04:23:36;;;;;;;14.90;13.30;;;;;14.50;100661.00;;;;2069529;28;20257;-70
2021/03/09 04:24:36;;;;;;;15.73;14.13;;;;;14.50;100664.00;;;;2076906;28;20779;-70
2021/03/09 04:25:36;;;;;;;14.43;13.03;;;;;14.50;100678.00;;;;2070666;28;20217;-70
2021/03/09 04:26:37;;;;;;;15.80;14.20;;;;;14.50;100660.00;;;;2075475;28;20221;-70
2021/03/09 04:27:37;;;;;;;16.93;15.33;;;;;14.50;100661.00;;;;2077069;28;20731;-70
2021/03/09 04:28:38;;;;;;;14.93;13.43;;;;;14.50;100663.00;;;;2077007;28;20230;-70
2021/03/09 04:29:38;;;;;;;15.43;13.83;;;;;14.50;100659.00;;;;2076117;28;20218;-70
2021/03/09 04:30:39;;;;;;;15.23;13.63;;;;;14.50;100666.00;;;;2076481;28;20461;-70
2021/03/09 04:31:40;;;;;;;15.60;13.90;;;;;14.50;100663.00;;;;2068500;28;20219;-70
2021/03/09 04:32:40;;;;;;;15.43;13.82;;;;;14.50;100659.00;;;;2060699;28;20220;-70
2021/03/09 04:33:41;;;;;;;14.87;13.37;;;;;14.50;100659.00;;;;2059751;28;20220;-70
2021/03/09 04:34:41;;;;;;;15.50;13.87;;;;;14.50;100631.00;;;;2068529;28;20222;-70
2021/03/09 04:35:42;;;;;;;15.53;14.03;;;;;14.50;100662.00;;;;2076303;28;20724;-70
2021/03/09 04:36:42;;;;;;;15.47;13.87;;;;;14.50;100664.00;;;;2068718;28;20211;-70
2021/03/09 04:37:42;;;;;;;16.40;14.83;;;;;14.50;100666.00;;;;2067768;28;20274;-72
2021/03/09 04:38:43;;;;;;;16.60;14.53;;;;;14.50;100667.00;;;;2060643;28;20243;-70
2021/03/09 04:39:43;;;;;;;15.10;13.60;;;;;14.50;100655.00;;;;2083528;28;20220;-70
2021/03/09 04:40:43;;;;;;;14.93;13.43;;;;;14.50;100668.00;;;;2075868;28;20222;-70
2021/03/09 04:41:44;;;;;;;14.87;13.40;;;;;14.50;100651.00;;;;2070581;28;20266;-70
2021/03/09 04:42:44;;;;;;;14.50;13.10;;;;;14.50;100655.00;;;;2069572;28;20222;-71
2021/03/09 04:43:44;;;;;;;15.53;13.87;;;;;14.50;100655.00;;;;2067664;28;20215;-70
2021/03/09 04:44:45;;;;;;;15.20;13.70;;;;;14.50;100655.00;;;;2076783;28;20237;-70
2021/03/09 04:45:45;;;;;;;14.80;13.30;;;;;14.50;100649.00;;;;2068770;28;20220;-70
2021/03/09 04:46:45;;;;;;;14.03;12.63;;;;;14.50;100657.00;;;;2067435;28;20222;-70
2021/03/09 04:47:46;;;;;;;14.13;12.77;;;;;14.50;100648.00;;;;2069071;28;20218;-69
2021/03/09 04:48:46;;;;;;;14.33;12.93;;;;;14.50;100649.00;;;;2059898;28;20208;-70
2021/03/09 04:49:47;;;;;;;15.53;13.83;;;;;14.50;100654.00;;;;2063101;28;20254;-69
2021/03/09 04:50:47;;;;;;;15.47;13.93;;;;;14.50;100655.00;;;;2076101;28;20289;-70
2021/03/09 04:51:47;;;;;;;13.87;12.47;;;;;14.50;100647.00;;;;2074522;28;20712;-70
2021/03/09 04:52:48;;;;;;;14.60;13.20;;;;;14.50;100646.00;;;;2079073;28;20695;-70
2021/03/09 04:53:48;;;;;;;14.17;12.77;;;;;14.50;100646.00;;;;2078652;28;20211;-70
2021/03/09 04:54:48;;;;;;;14.70;13.27;;;;;14.50;100651.00;;;;2075392;28;20210;-70
2021/03/09 04:55:49;;;;;;;14.47;13.07;;;;;14.50;100642.00;;;;2076079;28;20215;-70
2021/03/09 04:56:49;;;;;;;18.03;14.60;;;;;14.50;100648.00;;;;2076915;28;20206;-70
2021/03/09 04:57:49;;;;;;;14.87;13.37;;;;;14.50;100655.00;;;;2076614;28;20207;-70
2021/03/09 04:58:50;;;;;;;14.93;13.37;;;;;14.50;100644.00;;;;2085662;28;20220;-70